SBOSBO SAW / LTFJ
Speedbird OnlineSpeedbird Online SAW / LTFJ

Sabiha Gökçen International Airport
01:58 22°C

Location Istanbul, Turkey
Latitude: 40.898601532
Longitude: 29.3092002869
Local Time 01:58 on 22 Jun 2024
UTC +3 hours (Europe/Istanbul)
Currency £1 equals TRY 41.60
METAR LTFJ 212220Z 05011KT 9999 FEW010 SCT025 22/19 Q1014 NOSIG RMK RWY24R 06007KT RWY06R 04008KT RWY24L 05008KT
TAF TAF LTFJ 211640Z 2118/2218 06018KT 9999 FEW030 BECMG 2118/2121 06008KT SCT011 BKN020 BECMG 2206/2209 06018KT CAVOK
Weather As Of 22 Jun 2024 01:58
Description Scattered clouds
Wind 20 km/h from North-East (50°)
Cloud Cover 40%
Precipitation Rain: none, Snow: none
Sunrise 05:31
Sunset 20:38
NOTAM 71 active NOTAM
Rotations During the last 90 days there were
74 flights from LHR
70 flights to LHR
Lounges Plaza Premium Lounge , Terminal Building
Web Airport Website | Wikipedia
Codes IATA: SAW
ICAO: LTFJ
Altitude 95 Meter / 312 Feet
Distance 2,514 KM / 1,562 Miles
from London.
Runways
RunwayLength (m)Surface
063000Concrete
243000Concrete
Radio
TypeDescriptionFrequency
ATISATIS128.55
GNDGND121.75
TWRTWR118.8
TWRTWR37.877
Live ATC



Support Speedbird Online

© 2017-2024 Speedbird Online